Saturday, November 18, 2017, 9:32 PM GMT
Back to Local

CYSJ, Saint John, N. B.

Location: , , Canada Lat: 45.333
Local Time: 9:32 PM GMT (21:32 GMT) Lon: -65.883
Time Zone: GMT Elev: 337 ft

Show me the last for .
Show Decoded

2017-11-18 21:00 METAR CYSJ 182100Z VRB02KT 15SM FEW140 BKN170 OVC300 M00/M05 A2979 RMK AC2AC3CS3
                 SLP096 =
2017-11-18 20:00 METAR CYSJ 182000Z 29004KT 15SM BKN140 BKN300 01/M06 A2978 RMK AC5CS2 SLP093 =
2017-11-18 19:00 METAR CYSJ 181900Z 30004KT 15SM FEW019 SCT130 BKN300 02/M06 A2978 RMK SC1AC3CI2
                 SLP090 =
2017-11-18 18:00 METAR CYSJ 181800Z 35006KT 15SM FEW019 FEW100 SCT300 02/M06 A2977 RMK SC1AC1CI1
                 SLP087 =
2017-11-18 17:00 METAR CYSJ 181700Z 32009KT 300V360 15SM FEW019 FEW100 SCT300 01/M06 A2977 RMK
                 SC1AC1CI1 SLP089 =
2017-11-18 16:00 METAR CYSJ 181600Z 35012G18KT 15SM FEW019 FEW100 SCT300 00/M06 A2980 RMK
                 SC1AC1CI2 SLP098 =
2017-11-18 15:00 METAR CYSJ 181500Z 33013KT 15SM FEW019 SCT300 M01/M07 A2981 RMK SC1CI3 SLP101 =
2017-11-18 14:00 METAR CYSJ 181400Z 33008G16KT 15SM FEW019 SCT300 M02/M07 A2980 RMK SC1CI2 SLP098
                 =
2017-11-18 13:00 METAR CYSJ 181300Z 32013G19KT 15SM FEW019 FEW300 M03/M08 A2980 RMK SC1CI1 SLP100
                 =
2017-11-18 12:00 METAR CYSJ 181200Z 31008G16KT 15SM BKN019 BKN300 M04/M08 A2980 RMK SC5CI1 SLP100
                 =
2017-11-18 11:00 METAR CYSJ 181100Z 30012G18KT 15SM OVC020 M03/M08 A2979 RMK SC8 SLP096 =
2017-11-18 10:00 METAR CYSJ 181000Z 33014G20KT 15SM OVC020 M03/M07 A2975 RMK SC8 SLP083 =
2017-11-18 09:00 METAR CYSJ 180900Z 29009KT 260V330 15SM OVC021 M03/M07 A2974 RMK SC8 SLP077 =
2017-11-18 08:00 METAR CYSJ 180800Z 31010G22KT 15SM BKN023 M03/M07 A2971 RMK SC6 PRESRR SLP067 =
2017-11-18 07:00 METAR CYSJ 180700Z 32020G27KT 15SM BKN023 M03/M07 A2968 RMK SC6 SLP058 =
2017-11-18 06:00 METAR CYSJ 180600Z 31015G24KT 15SM OVC024 M02/M06 A2969 RMK SC8 PRESRR SLP060 =
2017-11-18 05:00 METAR CYSJ 180500Z 31017G27KT 15SM BKN022 OVC030 M02/M06 A2967 RMK SC5SC3 SLP052
                 =
2017-11-18 04:00 METAR CYSJ 180400Z 32015G25KT 15SM BKN023 OVC060 M01/M06 A2966 RMK SC6SC2 SLP050
                 =
2017-11-18 03:00 METAR CYSJ 180300Z 31018G28KT 15SM OVC023 M01/M05 A2964 RMK SC8 SLP042 =
2017-11-18 02:00 METAR CYSJ 180200Z 31017G28KT 15SM OVC024 M01/M05 A2962 RMK SC8 SLP035 =
2017-11-18 01:00 METAR CYSJ 180100Z 31021G30KT 15SM OVC023 M00/M04 A2958 RMK SC8 SLP023 =
2017-11-18 00:00 METAR CYSJ 180000Z 31019G26KT 10SM OVC021 00/M04 A2958 RMK SC8 SLP024 =
2017-11-17 23:00 METAR CYSJ 172300Z 31018G27KT 10SM OVC021 01/M03 A2957 RMK SC8 SLP019 =
2017-11-17 22:00 METAR CYSJ 172200Z 30013G25KT 260V350 10SM OVC022 01/M03 A2955 RMK SC8 PRESRR
                 SLP013 =

Support USWX by starting your Amazon purchase here.